createdAt,value
2022-08-03T00:04:21.123Z,100163.00
2022-08-03T00:09:35.538Z,100167.81
2022-08-03T00:14:37.339Z,100157.34
2022-08-03T00:19:38.642Z,100158.19
2022-08-03T00:24:39.954Z,100146.72
2022-08-03T00:30:00.160Z,100148.41
2022-08-03T00:35:08.088Z,100142.56
2022-08-03T00:40:12.863Z,100150.31
2022-08-03T00:45:14.476Z,100150.31
2022-08-03T00:50:17.021Z,100150.53
2022-08-03T00:55:18.911Z,100143.84
2022-08-03T01:00:24.102Z,100150.13
2022-08-03T01:05:25.705Z,100151.97
2022-08-03T01:10:31.576Z,100149.03
2022-08-03T01:15:46.237Z,100139.00
2022-08-03T01:20:53.359Z,100139.84
2022-08-03T01:26:12.462Z,100138.56
2022-08-03T01:31:18.639Z,100137.97
2022-08-03T01:36:24.818Z,100135.03
2022-08-03T01:41:31.795Z,100143.38
2022-08-03T01:46:34.758Z,100141.50
2022-08-03T01:52:03.098Z,100136.50
2022-08-03T01:56:59.725Z,100136.47
2022-08-03T02:02:27.777Z,100128.94
2022-08-03T02:07:26.768Z,100123.28
2022-08-03T02:12:31.298Z,100133.97
2022-08-03T02:17:39.319Z,100131.25
2022-08-03T02:22:43.333Z,100131.00
2022-08-03T02:27:55.418Z,100136.84
2022-08-03T02:32:58.769Z,100124.66
2022-08-03T02:38:02.141Z,100125.06
2022-08-03T02:43:07.762Z,100134.50
2022-08-03T02:48:11.530Z,100126.06
2022-08-03T02:53:14.448Z,100128.78
2022-08-03T02:58:19.726Z,100122.09
2022-08-03T03:03:22.301Z,100119.56
2022-08-03T03:08:28.420Z,100114.97
2022-08-03T03:13:32.325Z,100120.34
2022-08-03T03:18:34.851Z,100119.31
2022-08-03T03:23:38.386Z,100123.31
2022-08-03T03:28:40.330Z,100118.75
2022-08-03T03:33:41.951Z,100124.31
2022-08-03T03:38:43.357Z,100138.47
2022-08-03T03:43:44.978Z,100128.59
2022-08-03T03:48:46.506Z,100128.78
2022-08-03T03:54:02.742Z,100127.97
2022-08-03T03:59:04.496Z,100130.69
2022-08-03T04:04:24.674Z,100120.25
2022-08-03T04:09:44.648Z,100120.72
2022-08-03T04:14:48.279Z,100123.22
2022-08-03T04:19:53.595Z,100125.31
2022-08-03T04:25:08.965Z,100125.75
2022-08-03T04:30:10.942Z,100129.69
2022-08-03T04:35:12.390Z,100128.03
2022-08-03T04:40:22.777Z,100134.91
2022-08-03T04:45:25.330Z,100141.56
2022-08-03T04:50:28.014Z,100135.69
2022-08-03T04:55:31.024Z,100137.81
2022-08-03T05:00:32.705Z,100146.91
2022-08-03T05:05:48.892Z,100149.03
2022-08-03T05:10:53.121Z,100153.25
2022-08-03T05:15:54.485Z,100139.75
2022-08-03T05:20:55.853Z,100154.53
2022-08-03T05:25:57.280Z,100160.38
2022-08-03T05:30:58.750Z,100165.22
2022-08-03T05:36:03.558Z,100159.00
2022-08-03T05:41:23.156Z,100168.84
2022-08-03T05:46:27.057Z,100159.72
2022-08-03T05:51:28.852Z,100162.47
2022-08-03T05:56:30.282Z,100166.06
2022-08-03T06:01:33.037Z,100166.91
2022-08-03T06:06:34.416Z,100173.63
2022-08-03T06:11:36.357Z,100171.94
2022-08-03T06:16:37.767Z,100177.81
2022-08-03T06:21:39.937Z,100182.84
2022-08-03T06:26:41.307Z,100167.81
2022-08-03T06:31:42.677Z,100168.66
2022-08-03T06:36:44.109Z,100161.59
2022-08-03T06:41:45.642Z,100170.34
2022-08-03T06:46:47.753Z,100161.56
2022-08-03T06:52:04.505Z,100165.91
2022-08-03T06:57:08.392Z,100175.28
2022-08-03T07:02:10.331Z,100179.41
2022-08-03T07:07:11.718Z,100181.25
2022-08-03T07:12:13.034Z,100183.47
2022-08-03T07:17:14.625Z,100174.25
2022-08-03T07:22:16.239Z,100185.84
2022-08-03T07:27:17.956Z,100181.69
2022-08-03T07:32:19.679Z,100172.94
2022-08-03T07:37:21.419Z,100178.25
2022-08-03T07:42:25.730Z,100184.59
2022-08-03T07:47:35.683Z,100175.19
2022-08-03T07:52:50.249Z,100168.28
2022-08-03T07:58:03.980Z,100168.66
2022-08-03T08:03:05.646Z,100171.50
2022-08-03T08:08:07.269Z,100171.78
2022-08-03T08:13:08.564Z,100165.75
2022-08-03T08:18:09.896Z,100167.50
2022-08-03T08:23:40.834Z,100154.53
2022-08-03T08:28:33.818Z,100154.28
2022-08-03T08:34:03.247Z,100153.13
2022-08-03T08:38:57.402Z,100149.59
2022-08-03T08:44:00.175Z,100149.59
2022-08-03T08:49:03.793Z,100149.28
2022-08-03T08:54:08.386Z,100152.66
2022-08-03T08:59:09.969Z,100151.13
2022-08-03T09:04:11.620Z,100133.44
2022-08-03T09:10:00.118Z,100130.16
2022-08-03T09:14:42.252Z,100138.72
2022-08-03T09:20:09.853Z,100139.09
2022-08-03T09:25:27.228Z,100122.13
2022-08-03T09:30:34.169Z,100131.47
2022-08-03T09:35:53.478Z,100134.16
2022-08-03T09:41:00.095Z,100130.06
2022-08-03T09:46:07.579Z,100125.19
2022-08-03T09:51:14.227Z,100112.63
2022-08-03T09:56:41.676Z,100121.31
2022-08-03T10:01:43.301Z,100122.19
2022-08-03T10:06:45.593Z,100117.28
2022-08-03T10:11:47.454Z,100120.00
2022-08-03T10:16:49.602Z,100114.25
2022-08-03T10:21:56.492Z,100105.31
2022-08-03T10:27:04.380Z,100093.47
2022-08-03T10:32:43.348Z,100091.84
2022-08-03T10:37:58.831Z,100079.41
2022-08-03T10:43:09.848Z,100063.59
2022-08-03T10:48:12.105Z,100059.03
2022-08-03T10:53:14.758Z,100057.41
2022-08-03T10:58:53.402Z,100048.78
2022-08-03T11:03:59.096Z,100045.75
2022-08-03T11:09:09.540Z,100046.03
2022-08-03T11:14:13.104Z,100039.75
2022-08-03T11:19:16.790Z,100036.41
2022-08-03T11:24:36.478Z,100040.97
2022-08-03T11:29:53.814Z,100036.75
2022-08-03T11:35:08.369Z,100024.81
2022-08-03T11:40:33.343Z,100026.53
2022-08-03T11:45:36.113Z,100022.56
2022-08-03T11:50:39.628Z,100011.69
2022-08-03T11:55:43.378Z,100009.88
2022-08-03T12:00:44.928Z,100013.50
2022-08-03T12:05:53.037Z,100006.72
2022-08-03T12:10:56.776Z,99992.84
2022-08-03T12:15:59.182Z,100003.31
2022-08-03T12:21:11.029Z,100003.44
2022-08-03T12:26:12.365Z,99994.25
2022-08-03T12:31:13.871Z,99993.19
2022-08-03T12:36:15.369Z,99993.34
2022-08-03T12:41:28.855Z,99992.72
2022-08-03T12:46:39.397Z,99984.09
2022-08-03T12:51:42.201Z,99974.22
2022-08-03T12:57:10.918Z,99972.41
2022-08-03T13:02:25.052Z,99975.00
2022-08-03T13:07:26.560Z,99971.19
2022-08-03T13:12:29.789Z,99959.44
2022-08-03T13:17:31.203Z,99959.91
2022-08-03T13:22:33.494Z,99954.16
2022-08-03T13:28:13.802Z,99946.63
2022-08-03T13:32:58.180Z,99950.38
2022-08-03T13:38:00.197Z,99952.63
2022-08-03T13:43:01.707Z,99948.47
2022-08-03T13:48:03.693Z,99940.84
2022-08-03T13:53:05.263Z,99924.31
2022-08-03T13:58:09.891Z,99926.25
2022-08-03T14:03:14.988Z,99918.91
2022-08-03T14:08:17.006Z,99910.72
2022-08-03T14:13:18.819Z,99910.50
2022-08-03T14:18:29.307Z,99911.69
2022-08-03T14:23:37.524Z,99910.81
2022-08-03T14:28:39.138Z,99906.00
2022-08-03T14:33:40.889Z,99890.78
2022-08-03T14:38:42.296Z,99892.84
2022-08-03T14:44:01.522Z,99889.38
2022-08-03T14:50:37.282Z,99890.53
2022-08-03T14:54:26.546Z,99890.03
2022-08-03T14:59:27.957Z,99889.25
2022-08-03T15:04:49.230Z,99879.34
2022-08-03T15:09:50.635Z,99874.78
2022-08-03T15:14:52.087Z,99869.91
2022-08-03T15:20:03.797Z,99864.59
2022-08-03T15:26:31.752Z,99859.34
2022-08-03T15:30:37.605Z,99850.31
2022-08-03T15:35:38.961Z,99855.03
2022-08-03T15:40:40.284Z,99851.31
2022-08-03T15:45:42.857Z,99847.47
2022-08-03T15:50:44.466Z,99839.78
2022-08-03T15:55:46.106Z,99836.44
2022-08-03T16:00:47.494Z,99832.09
2022-08-03T16:05:48.867Z,99820.56
2022-08-03T16:10:50.251Z,99823.81
2022-08-03T16:15:52.409Z,99821.53
2022-08-03T16:20:53.729Z,99823.75
2022-08-03T16:25:55.067Z,99821.63
2022-08-03T16:30:56.418Z,99817.25
2022-08-03T16:35:57.746Z,99811.78
2022-08-03T16:40:59.215Z,99818.38
2022-08-03T16:46:00.547Z,99819.78
2022-08-03T16:51:02.826Z,99821.06
2022-08-03T16:56:09.974Z,99813.66
2022-08-03T17:01:21.635Z,99804.91
2022-08-03T17:06:26.168Z,99817.56
2022-08-03T17:11:38.229Z,99815.66
2022-08-03T17:16:45.075Z,99807.50
2022-08-03T17:21:58.007Z,99812.22
2022-08-03T17:27:03.777Z,99821.88
2022-08-03T17:32:13.900Z,99817.19
2022-08-03T17:37:50.660Z,99813.31
2022-08-03T17:42:43.298Z,99813.09
2022-08-03T17:47:44.870Z,99822.47
2022-08-03T17:53:07.640Z,99813.41
2022-08-03T17:58:43.739Z,99807.66
2022-08-03T18:03:57.723Z,99817.63
2022-08-03T18:09:05.251Z,99820.91
2022-08-03T18:14:36.552Z,99816.50
2022-08-03T18:20:01.874Z,99816.25
2022-08-03T18:25:00.341Z,99806.63
2022-08-03T18:30:09.599Z,99818.19
2022-08-03T18:35:14.931Z,99819.22
2022-08-03T18:40:20.762Z,99824.16
2022-08-03T18:45:57.552Z,99825.25
2022-08-03T18:50:50.926Z,99822.47
2022-08-03T18:56:22.839Z,99828.50
2022-08-03T19:01:58.186Z,99824.03
2022-08-03T19:06:49.258Z,99820.41
2022-08-03T19:12:13.336Z,99829.44
2022-08-03T19:17:21.278Z,99840.38
2022-08-03T19:22:27.074Z,99833.75
2022-08-03T19:27:30.677Z,99844.66
2022-08-03T19:32:34.523Z,99845.16
2022-08-03T19:37:39.831Z,99854.69
2022-08-03T19:42:46.283Z,99853.78
2022-08-03T19:47:52.262Z,99855.94
2022-08-03T19:52:55.229Z,99854.50
2022-08-03T19:57:58.436Z,99839.06
2022-08-03T20:03:01.157Z,99848.34
2022-08-03T20:08:05.405Z,99840.81
2022-08-03T20:13:06.980Z,99848.44
2022-08-03T20:18:16.609Z,99834.69
2022-08-03T20:23:19.568Z,99835.72
2022-08-03T20:28:28.061Z,99841.41
2022-08-03T20:33:46.326Z,99847.09
2022-08-03T20:38:52.003Z,99853.88
2022-08-03T20:43:53.581Z,99842.81
2022-08-03T20:48:57.178Z,99845.72
2022-08-03T20:59:23.274Z,99844.22
2022-08-03T21:04:25.603Z,99852.59
2022-08-03T21:09:33.534Z,99837.19
2022-08-03T21:13:07.722Z,99839.63
2022-08-03T21:15:04.191Z,99834.31
2022-08-03T21:20:07.365Z,99828.75
2022-08-03T21:25:09.279Z,99832.97
2022-08-03T21:30:11.852Z,99834.47
2022-08-03T21:35:13.339Z,99826.38
2022-08-03T21:40:16.474Z,99828.78
2022-08-03T21:45:17.999Z,99825.91
2022-08-03T21:50:20.463Z,99829.34
2022-08-03T21:55:25.914Z,99827.25
2022-08-03T22:00:27.509Z,99830.44
2022-08-03T22:05:43.822Z,99832.56
2022-08-03T22:10:47.418Z,99824.25
2022-08-03T22:15:48.817Z,99826.06
2022-08-03T22:20:51.997Z,99827.38
2022-08-03T22:25:56.837Z,99823.91
2022-08-03T22:31:00.009Z,99830.88
2022-08-03T22:36:23.601Z,99837.66
2022-08-03T22:41:25.029Z,99828.69
2022-08-03T22:46:27.355Z,99847.88
2022-08-03T22:51:29.053Z,99837.81
2022-08-03T22:56:30.412Z,99841.41
2022-08-03T23:01:41.475Z,99850.91
2022-08-03T23:06:48.515Z,99840.63
2022-08-03T23:11:53.268Z,99854.53
2022-08-03T23:16:56.325Z,99860.97
2022-08-03T23:22:03.838Z,99854.31
2022-08-03T23:27:07.203Z,99851.94
2022-08-03T23:32:10.077Z,99853.38
2022-08-03T23:37:13.830Z,99851.38
2022-08-03T23:42:19.491Z,99843.06
2022-08-03T23:47:21.117Z,99847.34
2022-08-03T23:52:43.318Z,99844.94
2022-08-03T23:58:11.181Z,99847.09
